Time;durP1;ratioP1;P1;durP2;ratioP2;P2;SDS_P1;SDS_P2;PMS_P1;PMS_P2;Temp;Humidity;BMP_temperature;BMP_pressure;BME280_temperature;BME280_humidity;BME280_pressure;Samples;Min_cycle;Max_cycle;Signal;HPM_P1;HPM_P2
2022/05/27 00:01:16;;;;;;;1.50;1.50;;;21.70;64.40;;;;;;5109447;27;43884;-71
2022/05/27 00:03:44;;;;;;;1.60;1.60;;;21.50;64.80;;;;;;5109536;27;43465;-71
2022/05/27 00:06:12;;;;;;;1.53;1.53;;;21.40;65.20;;;;;;5109053;27;43954;-71
2022/05/27 00:08:41;;;;;;;1.70;1.57;;;21.30;65.50;;;;;;5109179;27;43924;-70
2022/05/27 00:11:09;;;;;;;1.60;1.60;;;21.20;65.80;;;;;;5109254;27;43955;-71
2022/05/27 00:13:37;;;;;;;1.40;1.40;;;21.20;66.00;;;;;;5089656;27;44292;-71
2022/05/27 00:16:05;;;;;;;1.30;1.30;;;21.10;66.10;;;;;;5089298;27;45101;-70
2022/05/27 00:18:33;;;;;;;1.57;1.57;;;21.10;66.30;;;;;;5089206;28;43913;-70
2022/05/27 00:21:07;;;;;;;1.57;1.57;;;21.10;66.50;;;;;;5089610;27;43856;-70
2022/05/27 00:23:35;;;;;;;1.60;1.60;;;21.00;66.50;;;;;;5089773;27;43857;-72
2022/05/27 00:26:04;;;;;;;1.50;1.50;;;21.00;66.60;;;;;;5089218;27;43924;-71
2022/05/27 00:28:32;;;;;;;1.60;1.60;;;21.00;66.60;;;;;;5089151;27;43871;-70
2022/05/27 00:31:04;;;;;;;1.50;1.50;;;21.00;66.80;;;;;;5089248;27;43442;-70
2022/05/27 00:33:34;;;;;;;1.53;1.53;;;21.00;68.40;;;;;;5089556;27;43911;-70
2022/05/27 00:36:02;;;;;;;1.57;1.57;;;21.10;69.00;;;;;;5103827;27;44003;-71
2022/05/27 00:38:30;;;;;;;1.50;1.50;;;21.20;67.70;;;;;;5108605;27;44052;-71
2022/05/27 00:40:58;;;;;;;1.40;1.40;;;21.40;67.30;;;;;;5090039;27;44003;-71
2022/05/27 00:43:27;;;;;;;1.50;1.50;;;21.60;66.60;;;;;;5108759;27;44268;-71
2022/05/27 00:45:58;;;;;;;1.33;1.33;;;21.80;66.10;;;;;;5089532;27;45669;-70
2022/05/27 00:48:26;;;;;;;1.53;1.53;;;21.90;65.60;;;;;;5108202;27;43442;-70
2022/05/27 00:50:54;;;;;;;1.60;1.60;;;22.00;65.00;;;;;;5108713;27;43378;-71
2022/05/27 00:53:25;;;;;;;1.50;1.50;;;22.10;64.60;;;;;;5108968;27;43935;-71
2022/05/27 00:55:57;;;;;;;1.43;1.43;;;22.30;64.20;;;;;;5108310;27;43946;-70
2022/05/27 00:58:27;;;;;;;1.37;1.37;;;22.40;63.90;;;;;;5108428;27;43354;-70
2022/05/27 01:00:55;;;;;;;1.63;1.63;;;22.50;63.60;;;;;;5107847;27;43960;-72
2022/05/27 01:03:23;;;;;;;1.93;1.73;;;22.60;63.30;;;;;;5108279;27;43975;-71
2022/05/27 01:05:51;;;;;;;1.70;1.60;;;22.50;63.00;;;;;;5108112;27;44014;-71
2022/05/27 01:08:19;;;;;;;1.60;1.60;;;22.40;63.60;;;;;;5108207;27;44108;-71
2022/05/27 01:10:53;;;;;;;1.50;1.50;;;22.20;64.10;;;;;;5089459;27;44018;-70
2022/05/27 01:13:31;;;;;;;1.60;1.60;;;22.00;64.00;;;;;;5108642;27;43986;-71
2022/05/27 01:16:03;;;;;;;1.60;1.60;;;21.70;64.40;;;;;;5107923;27;43969;-72
2022/05/27 01:21:29;;;;;;;1.60;1.60;;;21.40;65.40;;;;;;5104661;27;43978;-70
2022/05/27 01:24:26;;;;;;;1.40;1.40;;;21.30;65.60;;;;;;5089997;27;44022;-71
2022/05/27 01:27:08;;;;;;;1.53;1.53;;;21.20;66.00;;;;;;5108022;27;43915;-70
2022/05/27 01:30:09;;;;;;;1.70;1.70;;;21.20;66.30;;;;;;5108090;27;43917;-70
2022/05/27 01:32:41;;;;;;;1.50;1.50;;;21.10;66.40;;;;;;5107832;27;43912;-71
2022/05/27 01:35:13;;;;;;;1.70;1.70;;;21.10;66.60;;;;;;5108059;27;43979;-70
2022/05/27 01:37:43;;;;;;;1.60;1.60;;;21.00;66.60;;;;;;5107059;27;44036;-71
2022/05/27 01:40:13;;;;;;;1.73;1.70;;;21.00;66.70;;;;;;5107805;27;43949;-71
2022/05/27 01:42:43;;;;;;;1.47;1.47;;;21.00;66.80;;;;;;5107791;27;43951;-70
2022/05/27 01:45:13;;;;;;;1.73;1.70;;;20.90;66.70;;;;;;5107976;27;43305;-71
2022/05/27 01:47:44;;;;;;;1.60;1.60;;;20.90;66.80;;;;;;5107156;27;44006;-71
2022/05/27 01:50:15;;;;;;;1.57;1.57;;;20.90;66.90;;;;;;5107466;27;44003;-71
2022/05/27 01:52:45;;;;;;;1.67;1.67;;;20.90;66.90;;;;;;5107858;27;43410;-71
2022/05/27 01:55:14;;;;;;;1.67;1.67;;;20.90;66.90;;;;;;5107840;27;44006;-71
2022/05/27 01:57:44;;;;;;;1.70;1.70;;;20.90;66.90;;;;;;5107578;27;44022;-71
2022/05/27 02:00:13;;;;;;;1.67;1.57;;;20.90;66.90;;;;;;5107607;27;44162;-70
2022/05/27 02:02:44;;;;;;;1.63;1.63;;;20.90;67.80;;;;;;5107391;27;43982;-70
2022/05/27 02:05:13;;;;;;;1.90;1.80;;;21.00;68.50;;;;;;5107939;27;43962;-71
2022/05/27 02:07:42;;;;;;;1.80;1.80;;;21.10;68.10;;;;;;5088691;27;45940;-72
2022/05/27 02:10:13;;;;;;;1.40;1.40;;;21.30;67.50;;;;;;5107221;27;43537;-70
2022/05/27 02:12:43;;;;;;;2.17;2.07;;;21.50;67.00;;;;;;5107167;27;43975;-70
2022/05/27 02:15:12;;;;;;;1.90;1.90;;;21.70;66.40;;;;;;5107789;27;43995;-70
2022/05/27 02:17:43;;;;;;;1.73;1.73;;;21.80;65.80;;;;;;5107059;27;43926;-71
2022/05/27 02:20:14;;;;;;;1.80;1.80;;;22.00;65.40;;;;;;5085510;28;45114;-70
2022/05/27 02:22:44;;;;;;;1.70;1.70;;;22.10;64.80;;;;;;5101112;27;44075;-71
2022/05/27 02:25:14;;;;;;;1.97;1.87;;;22.20;64.20;;;;;;5107494;27;43463;-71
2022/05/27 02:27:45;;;;;;;1.87;1.87;;;22.30;64.10;;;;;;5088484;27;45750;-71
2022/05/27 02:30:14;;;;;;;2.07;1.90;;;22.30;64.10;;;;;;5106984;27;43943;-70
2022/05/27 02:32:44;;;;;;;1.90;1.90;;;22.10;64.40;;;;;;5107231;27;43378;-70
2022/05/27 02:35:13;;;;;;;1.83;1.83;;;22.00;65.00;;;;;;5107291;27;43449;-71
2022/05/27 02:37:42;;;;;;;1.90;1.90;;;21.70;64.60;;;;;;5107101;27;43923;-70
2022/05/27 02:40:13;;;;;;;1.80;1.80;;;21.60;65.00;;;;;;5106709;27;43502;-70
2022/05/27 02:42:49;;;;;;;1.87;1.87;;;21.40;65.30;;;;;;5107033;27;43394;-70
2022/05/27 02:45:24;;;;;;;1.80;1.80;;;21.30;65.70;;;;;;5107114;27;43854;-70
2022/05/27 02:47:59;;;;;;;1.80;1.80;;;21.20;66.00;;;;;;5106462;27;44001;-70
2022/05/27 02:50:30;;;;;;;2.00;2.00;;;21.10;66.20;;;;;;5110387;27;43832;-70
2022/05/27 02:53:05;;;;;;;2.10;2.10;;;21.00;66.40;;;;;;5110365;27;43914;-71
2022/05/27 02:55:36;;;;;;;1.80;1.80;;;21.00;66.60;;;;;;5092329;27;43980;-70
2022/05/27 02:58:04;;;;;;;2.00;2.00;;;21.00;66.70;;;;;;5110570;27;43938;-69
2022/05/27 03:00:33;;;;;;;1.90;1.90;;;20.90;66.70;;;;;;5110563;27;44079;-70
2022/05/27 03:03:03;;;;;;;1.93;1.93;;;20.90;66.80;;;;;;5110356;27;43847;-70
2022/05/27 03:05:33;;;;;;;1.60;1.60;;;20.90;66.90;;;;;;5102881;27;43487;-70
2022/05/27 03:08:08;;;;;;;1.80;1.80;;;20.90;66.90;;;;;;5090586;27;44040;-70
2022/05/27 03:10:45;;;;;;;1.90;1.90;;;20.90;67.00;;;;;;5088886;27;44853;-70
2022/05/27 03:13:44;;;;;;;2.00;2.00;;;20.90;67.00;;;;;;5090497;27;44179;-71
2022/05/27 03:16:15;;;;;;;1.80;1.80;;;20.90;67.10;;;;;;5087272;27;44240;-71
2022/05/27 03:19:05;;;;;;;1.87;1.87;;;20.90;67.10;;;;;;5089511;27;43883;-70
2022/05/27 03:21:35;;;;;;;1.80;1.80;;;20.80;67.00;;;;;;5090530;27;43978;-70
2022/05/27 03:24:10;;;;;;;2.00;1.90;;;20.90;68.30;;;;;;5090246;27;44107;-70
2022/05/27 03:26:43;;;;;;;1.87;1.87;;;21.00;68.40;;;;;;5090523;27;44133;-70
2022/05/27 03:29:16;;;;;;;1.87;1.87;;;21.10;68.00;;;;;;5089837;28;43895;-71
2022/05/27 03:31:49;;;;;;;2.00;2.00;;;21.30;67.40;;;;;;5090005;27;43962;-71
2022/05/27 03:34:22;;;;;;;2.13;2.03;;;21.50;66.90;;;;;;5090089;27;43975;-71
2022/05/27 03:36:53;;;;;;;1.90;1.90;;;21.70;66.30;;;;;;5071558;27;44137;-70
2022/05/27 03:39:24;;;;;;;1.83;1.83;;;21.80;65.80;;;;;;5090008;27;45068;-71
2022/05/27 03:41:54;;;;;;;2.10;2.10;;;22.00;65.40;;;;;;5089880;27;43943;-71
2022/05/27 03:44:22;;;;;;;1.73;1.73;;;22.10;64.90;;;;;;5089783;27;43951;-70
2022/05/27 03:46:51;;;;;;;1.77;1.77;;;22.20;64.50;;;;;;5071579;27;43963;-70
2022/05/27 03:49:20;;;;;;;2.00;1.90;;;22.30;64.20;;;;;;5089664;27;43731;-71
2022/05/27 03:51:51;;;;;;;2.13;2.13;;;22.30;63.90;;;;;;5088206;27;44747;-70
2022/05/27 03:54:21;;;;;;;1.80;1.80;;;22.30;63.80;;;;;;5089732;27;43334;-70
2022/05/27 03:56:48;;;;;;;2.00;2.00;;;22.20;64.40;;;;;;5090413;27;43925;-71
2022/05/27 03:59:17;;;;;;;1.97;1.97;;;22.00;65.00;;;;;;5087497;27;46153;-71
2022/05/27 04:01:46;;;;;;;2.20;2.10;;;21.80;65.10;;;;;;5089554;27;43940;-70
2022/05/27 04:04:15;;;;;;;2.30;2.20;;;21.60;64.80;;;;;;5093975;27;44000;-72
2022/05/27 04:06:46;;;;;;;2.13;2.03;;;21.50;65.20;;;;;;5090824;27;43958;-71
2022/05/27 04:09:15;;;;;;;2.60;2.50;;;21.30;65.50;;;;;;5089683;27;43955;-71
2022/05/27 04:11:43;;;;;;;2.53;2.43;;;21.20;65.80;;;;;;5094257;27;43997;-71
2022/05/27 04:14:11;;;;;;;3.33;2.63;;;21.20;66.10;;;;;;5109276;27;43911;-71
2022/05/27 04:16:39;;;;;;;3.20;2.87;;;21.10;66.10;;;;;;5103031;27;43961;-70
2022/05/27 04:19:07;;;;;;;3.10;2.90;;;21.00;66.20;;;;;;5109533;27;43883;-70
2022/05/27 04:21:35;;;;;;;4.03;3.40;;;21.00;66.40;;;;;;5097889;27;44013;-70
2022/05/27 04:24:05;;;;;;;4.63;3.00;;;21.00;66.60;;;;;;5089888;27;44398;-70
2022/05/27 04:26:33;;;;;;;4.23;3.53;;;20.90;66.60;;;;;;5090076;27;44099;-70
2022/05/27 04:29:01;;;;;;;4.70;3.63;;;20.90;66.70;;;;;;5096158;27;43929;-71
2022/05/27 04:31:28;;;;;;;5.50;4.03;;;20.90;66.80;;;;;;5089511;27;44028;-71
2022/05/27 04:33:56;;;;;;;6.50;3.80;;;20.90;66.70;;;;;;5094475;27;43418;-71
2022/05/27 04:36:24;;;;;;;4.23;3.60;;;20.90;66.80;;;;;;5108945;27;43828;-70
2022/05/27 04:38:52;;;;;;;5.30;3.87;;;20.90;66.90;;;;;;5097297;27;43914;-70
2022/05/27 04:41:25;;;;;;;7.20;3.93;;;20.90;66.90;;;;;;5087756;27;44153;-70
2022/05/27 04:43:52;;;;;;;5.23;3.93;;;20.90;66.90;;;;;;5089389;27;44102;-70
2022/05/27 04:46:20;;;;;;;6.90;4.57;;;20.90;66.90;;;;;;5095296;27;43915;-71
2022/05/27 04:48:49;;;;;;;8.13;4.27;;;20.90;66.80;;;;;;5108445;27;44749;-71
2022/05/27 04:51:17;;;;;;;7.70;4.83;;;20.90;66.90;;;;;;5109089;27;44519;-70
2022/05/27 04:53:46;;;;;;;5.00;4.07;;;20.90;67.50;;;;;;5108254;27;44029;-70
2022/05/27 04:56:13;;;;;;;6.53;3.90;;;20.90;67.90;;;;;;5096792;27;44038;-71
2022/05/27 04:58:43;;;;;;;6.87;4.33;;;21.10;67.70;;;;;;5088557;27;44077;-70
2022/05/27 05:01:11;;;;;;;6.23;4.33;;;21.30;67.20;;;;;;5070825;28;45140;-71
2022/05/27 05:03:39;;;;;;;7.60;4.27;;;21.50;66.80;;;;;;5088679;27;44032;-71
2022/05/27 05:06:07;;;;;;;6.47;4.20;;;21.60;66.90;;;;;;5089375;27;43516;-70
2022/05/27 05:08:37;;;;;;;6.67;4.17;;;21.80;65.70;;;;;;5089294;27;44082;-71
2022/05/27 05:11:06;;;;;;;6.97;4.87;;;22.00;65.30;;;;;;5107564;27;44271;-70
2022/05/27 05:13:34;;;;;;;6.47;4.30;;;22.10;64.80;;;;;;5069872;28;44030;-70
2022/05/27 05:16:08;;;;;;;5.17;3.90;;;22.20;64.50;;;;;;5089021;27;44023;-70
2022/05/27 05:18:36;;;;;;;4.87;4.17;;;22.30;64.10;;;;;;5095569;27;44017;-71
2022/05/27 05:21:04;;;;;;;6.00;4.50;;;22.30;64.00;;;;;;5070166;27;44420;-70
2022/05/27 05:23:37;;;;;;;4.40;4.00;;;22.20;63.90;;;;;;5077061;27;43409;-70
2022/05/27 05:26:05;;;;;;;4.07;3.73;;;22.10;64.60;;;;;;5089149;27;43929;-70
2022/05/27 05:28:33;;;;;;;4.20;3.80;;;21.90;65.00;;;;;;5088936;27;43918;-70
2022/05/27 05:31:02;;;;;;;4.17;3.77;;;21.60;64.60;;;;;;5102926;27;44398;-70
2022/05/27 05:33:33;;;;;;;4.10;3.60;;;21.50;65.00;;;;;;5099977;27;43893;-70
2022/05/27 05:36:01;;;;;;;5.00;4.20;;;21.30;65.20;;;;;;5088448;27;43789;-71
2022/05/27 05:38:29;;;;;;;4.77;4.20;;;21.20;65.60;;;;;;5096760;27;43986;-70
2022/05/27 05:40:57;;;;;;;6.40;3.83;;;21.10;65.80;;;;;;5107969;27;43952;-70
2022/05/27 05:43:25;;;;;;;5.43;3.80;;;21.10;66.10;;;;;;5099581;27;43935;-71
2022/05/27 05:45:58;;;;;;;4.83;3.73;;;21.00;66.20;;;;;;5088743;27;43848;-71
2022/05/27 05:48:27;;;;;;;4.43;4.03;;;21.00;66.40;;;;;;5078477;27;44104;-70
2022/05/27 05:50:55;;;;;;;4.07;3.80;;;20.90;66.40;;;;;;5107894;27;44065;-70
2022/05/27 05:53:23;;;;;;;5.40;4.00;;;20.90;66.60;;;;;;5107629;27;43899;-70
2022/05/27 05:55:51;;;;;;;5.47;3.60;;;20.90;66.70;;;;;;5092162;27;43934;-70
2022/05/27 05:58:19;;;;;;;3.90;3.50;;;20.90;66.70;;;;;;5069392;27;45864;-71
2022/05/27 06:00:47;;;;;;;5.17;4.13;;;20.90;66.70;;;;;;5088204;27;44054;-71
2022/05/27 06:03:15;;;;;;;4.30;3.90;;;20.80;66.70;;;;;;5088139;27;43944;-71
2022/05/27 06:05:44;;;;;;;4.40;4.00;;;20.80;66.70;;;;;;5088368;27;44044;-70
2022/05/27 06:08:14;;;;;;;5.50;3.97;;;20.80;66.70;;;;;;5104190;27;43935;-70
2022/05/27 06:10:42;;;;;;;3.80;3.50;;;20.80;66.70;;;;;;5097836;27;43467;-70
2022/05/27 06:13:10;;;;;;;4.17;3.77;;;20.80;66.80;;;;;;5091344;27;43962;-70
2022/05/27 06:15:38;;;;;;;4.63;3.50;;;20.80;66.80;;;;;;5089338;27;43968;-70
2022/05/27 06:18:07;;;;;;;4.17;3.77;;;20.80;67.40;;;;;;5107539;27;43947;-70
2022/05/27 06:20:36;;;;;;;3.57;3.30;;;20.90;67.90;;;;;;5082570;27;45287;-70
2022/05/27 06:23:05;;;;;;;3.70;3.30;;;21.10;67.70;;;;;;5107137;27;43338;-70
2022/05/27 06:25:33;;;;;;;4.10;3.70;;;21.20;67.10;;;;;;5097318;27;44046;-70
2022/05/27 06:36:14;;;;;;;3.63;3.40;;;21.90;65.10;;;;;;5106752;27;44148;-71
2022/05/27 06:38:44;;;;;;;4.87;3.67;;;22.00;64.50;;;;;;5089879;27;45269;-70
2022/05/27 06:41:11;;;;;;;4.13;3.50;;;22.20;64.30;;;;;;5087308;27;43957;-69
2022/05/27 06:43:39;;;;;;;3.60;3.30;;;22.20;63.90;;;;;;5087493;27;44041;-70
2022/05/27 06:46:07;;;;;;;4.53;3.57;;;22.20;63.70;;;;;;5088404;27;43906;-69
2022/05/27 06:48:35;;;;;;;3.50;3.20;;;22.20;63.80;;;;;;5087415;27;43939;-71
2022/05/27 06:51:06;;;;;;;3.40;3.17;;;22.00;64.40;;;;;;5087658;27;44078;-70
2022/05/27 06:53:34;;;;;;;3.90;3.07;;;21.80;64.50;;;;;;5087491;27;43974;-71
2022/05/27 06:56:04;;;;;;;3.10;2.90;;;21.60;64.50;;;;;;5069073;28;43558;-71
2022/05/27 06:58:32;;;;;;;3.87;3.57;;;21.40;64.90;;;;;;5087398;27;43956;-71
2022/05/27 07:01:00;;;;;;;4.70;3.40;;;21.30;65.30;;;;;;5100666;27;43329;-70
2022/05/27 07:03:28;;;;;;;3.17;2.97;;;21.20;65.60;;;;;;5087386;27;43987;-71
2022/05/27 07:06:00;;;;;;;3.47;3.20;;;21.10;65.90;;;;;;5087783;27;43763;-71
2022/05/27 07:08:28;;;;;;;3.33;3.00;;;21.00;66.10;;;;;;5087451;27;43929;-71
2022/05/27 07:10:55;;;;;;;3.00;2.80;;;20.90;66.20;;;;;;5087239;27;44010;-70
2022/05/27 07:13:25;;;;;;;3.47;3.17;;;20.90;66.40;;;;;;5087084;27;43454;-71
2022/05/27 07:15:53;;;;;;;3.30;3.10;;;20.90;66.50;;;;;;5087326;27;43505;-70
2022/05/27 07:18:21;;;;;;;3.20;3.00;;;20.80;66.50;;;;;;5087088;27;44084;-71
2022/05/27 07:20:49;;;;;;;3.43;3.23;;;20.80;66.60;;;;;;5087013;27;43887;-71
2022/05/27 07:23:17;;;;;;;3.47;3.27;;;20.80;66.70;;;;;;5092629;27;44041;-71
2022/05/27 07:25:45;;;;;;;2.87;2.67;;;20.80;66.80;;;;;;5107154;27;43956;-70
2022/05/27 07:28:13;;;;;;;3.20;3.00;;;20.80;66.70;;;;;;5087271;27;44772;-71
2022/05/27 07:30:43;;;;;;;3.20;2.90;;;20.80;66.80;;;;;;5086759;27;43882;-71
2022/05/27 07:33:10;;;;;;;2.90;2.70;;;20.80;66.80;;;;;;5106102;27;44042;-71
2022/05/27 07:35:38;;;;;;;2.70;2.60;;;20.80;66.80;;;;;;5109291;27;43957;-70
2022/05/27 07:38:07;;;;;;;3.10;2.90;;;20.80;66.90;;;;;;5110051;27;43930;-70
2022/05/27 07:40:35;;;;;;;3.20;2.93;;;20.70;66.80;;;;;;5109986;27;43976;-70
2022/05/27 07:43:03;;;;;;;2.30;2.30;;;20.70;67.10;;;;;;5109962;27;43958;-70
2022/05/27 07:45:32;;;;;;;3.20;3.00;;;20.80;67.80;;;;;;5110277;27;43782;-71
2022/05/27 07:48:01;;;;;;;3.30;3.10;;;20.90;67.70;;;;;;5109466;27;43994;-70
2022/05/27 07:50:29;;;;;;;3.10;2.90;;;21.10;67.30;;;;;;5109764;27;43802;-71
2022/05/27 07:52:57;;;;;;;3.40;3.10;;;21.30;66.90;;;;;;5109809;27;43964;-70
2022/05/27 07:55:25;;;;;;;2.93;2.73;;;21.50;66.40;;;;;;5091518;27;44291;-70
2022/05/27 07:57:53;;;;;;;3.23;3.00;;;21.70;65.40;;;;;;5089762;27;43791;-70
2022/05/27 08:00:23;;;;;;;4.70;2.60;;;21.80;65.20;;;;;;5109927;27;44036;-69
2022/05/27 08:02:50;;;;;;;2.80;2.60;;;22.00;64.70;;;;;;5089606;28;44003;-71
2022/05/27 08:05:21;;;;;;;2.63;2.43;;;22.10;64.50;;;;;;5071750;28;43916;-71
2022/05/27 08:07:50;;;;;;;3.33;2.60;;;22.20;64.00;;;;;;5103373;27;43946;-70
2022/05/27 08:10:19;;;;;;;3.40;2.60;;;22.20;63.60;;;;;;5090645;27;45142;-71
2022/05/27 08:12:47;;;;;;;5.13;2.70;;;22.20;64.30;;;;;;5090642;27;43339;-70
2022/05/27 08:15:15;;;;;;;2.57;2.47;;;22.00;63.90;;;;;;5109419;27;44082;-70
2022/05/27 08:17:43;;;;;;;2.80;2.60;;;21.90;64.50;;;;;;5109100;27;43927;-70
2022/05/27 08:20:13;;;;;;;3.07;2.77;;;21.70;64.20;;;;;;5109236;27;44261;-70
2022/05/27 08:22:42;;;;;;;2.80;2.47;;;21.50;64.60;;;;;;5109196;27;43924;-70
2022/05/27 08:25:10;;;;;;;3.03;2.80;;;21.30;65.00;;;;;;5095166;27;43829;-71
2022/05/27 08:27:38;;;;;;;2.70;2.50;;;21.20;65.40;;;;;;5071072;27;46154;-70
2022/05/27 08:30:07;;;;;;;2.50;2.40;;;21.10;65.70;;;;;;5085020;27;45010;-70
2022/05/27 08:32:35;;;;;;;2.60;2.50;;;21.00;66.00;;;;;;5108123;27;43911;-70
2022/05/27 08:38:04;;;;;;;2.57;2.43;;;20.90;66.50;;;;;;5089067;27;43990;-71
2022/05/27 08:41:06;;;;;;;2.50;2.30;;;20.80;66.50;;;;;;5108480;27;43396;-70
2022/05/27 08:43:37;;;;;;;2.50;2.37;;;20.80;66.50;;;;;;5109098;27;43925;-70
2022/05/27 08:46:11;;;;;;;2.43;2.33;;;20.80;66.70;;;;;;5105320;27;43421;-72
2022/05/27 08:48:41;;;;;;;2.53;2.37;;;20.80;66.70;;;;;;5088856;27;44060;-70
2022/05/27 08:51:33;;;;;;;2.53;2.40;;;20.70;66.60;;;;;;5089157;27;43905;-70
2022/05/27 08:54:04;;;;;;;2.70;2.50;;;20.70;66.70;;;;;;5089102;27;43913;-70
2022/05/27 08:59:31;;;;;;;2.60;2.50;;;20.70;66.60;;;;;;5088448;27;44044;-71
2022/05/27 09:02:02;;;;;;;2.53;2.33;;;20.70;67.70;;;;;;5088499;28;43913;-71
2022/05/27 09:04:36;;;;;;;2.20;2.10;;;20.90;67.60;;;;;;5080470;28;43424;-70
2022/05/27 09:07:07;;;;;;;2.70;2.60;;;21.10;67.30;;;;;;5082005;28;44016;-70
2022/05/27 09:09:37;;;;;;;2.50;2.30;;;21.20;66.80;;;;;;5088496;28;43950;-71
2022/05/27 09:12:20;;;;;;;2.40;2.30;;;21.40;65.50;;;;;;5088476;28;43452;-71
2022/05/27 09:14:51;;;;;;;1.87;1.87;;;21.60;65.80;;;;;;5087873;27;44016;-70
2022/05/27 09:17:24;;;;;;;2.20;1.90;;;21.80;64.80;;;;;;5108744;27;43894;-71
2022/05/27 09:19:55;;;;;;;2.20;2.10;;;21.90;64.30;;;;;;5108454;27;43966;-71
2022/05/27 09:22:27;;;;;;;1.90;1.80;;;22.00;64.00;;;;;;5101375;27;44145;-71
2022/05/27 09:25:01;;;;;;;1.80;1.73;;;22.20;63.80;;;;;;5102295;27;43459;-71
2022/05/27 09:27:34;;;;;;;2.20;2.10;;;22.30;63.50;;;;;;5088944;27;43895;-71
2022/05/27 09:30:04;;;;;;;1.80;1.80;;;22.30;63.00;;;;;;5088120;28;44800;-71
2022/05/27 09:32:37;;;;;;;1.90;1.90;;;22.40;63.40;;;;;;5088142;28;43470;-72
2022/05/27 09:35:07;;;;;;;2.00;1.90;;;22.50;62.50;;;;;;5088268;28;43864;-72
2022/05/27 09:37:56;;;;;;;2.30;2.20;;;22.40;62.50;;;;;;5068466;28;43960;-71
2022/05/27 09:40:29;;;;;;;2.03;1.93;;;22.20;63.20;;;;;;5085955;28;43949;-70
2022/05/27 09:43:01;;;;;;;1.90;1.90;;;22.00;63.40;;;;;;5087556;28;44064;-71
2022/05/27 09:45:30;;;;;;;2.20;2.10;;;21.70;63.60;;;;;;5087091;28;43923;-71
2022/05/27 09:47:59;;;;;;;1.90;1.80;;;21.50;64.10;;;;;;5087991;28;44133;-70
2022/05/27 09:50:29;;;;;;;2.00;2.00;;;21.40;64.60;;;;;;5087252;28;44867;-71
2022/05/27 09:52:57;;;;;;;1.80;1.70;;;21.20;65.00;;;;;;5067179;28;43955;-71
2022/05/27 09:55:28;;;;;;;1.70;1.70;;;21.10;65.30;;;;;;5067600;28;43487;-71
2022/05/27 09:57:58;;;;;;;1.90;1.80;;;21.00;65.50;;;;;;5080716;28;43458;-71
2022/05/27 10:00:44;;;;;;;1.90;1.80;;;21.00;65.80;;;;;;5087132;28;43892;-71
2022/05/27 10:03:33;;;;;;;1.93;1.70;;;20.90;66.00;;;;;;5087178;28;43917;-71
2022/05/27 10:06:03;;;;;;;1.67;1.63;;;20.90;66.20;;;;;;5068739;28;43940;-72
2022/05/27 10:08:44;;;;;;;1.50;1.50;;;20.90;66.40;;;;;;5087942;28;43805;-71
2022/05/27 10:11:19;;;;;;;1.90;1.80;;;20.80;66.40;;;;;;5072587;28;45157;-71
2022/05/27 10:13:48;;;;;;;1.70;1.70;;;20.80;66.40;;;;;;5048926;28;46330;-71
2022/05/27 10:16:23;;;;;;;1.60;1.50;;;20.80;66.60;;;;;;5067429;28;43908;-70
2022/05/27 10:19:06;;;;;;;1.60;1.60;;;20.80;66.80;;;;;;5067841;28;43963;-70
2022/05/27 10:21:36;;;;;;;1.87;1.70;;;20.80;66.80;;;;;;5067696;28;44020;-70
2022/05/27 10:24:18;;;;;;;1.57;1.57;;;20.80;66.70;;;;;;5067355;28;43407;-71
2022/05/27 10:26:47;;;;;;;1.87;1.70;;;20.80;66.80;;;;;;5067448;28;43944;-70
2022/05/27 10:29:16;;;;;;;1.57;1.40;;;20.80;66.80;;;;;;5067882;28;43762;-70
2022/05/27 10:31:51;;;;;;;1.80;1.60;;;20.80;66.80;;;;;;5067074;28;45106;-72
2022/05/27 10:34:39;;;;;;;2.33;1.80;;;20.80;67.00;;;;;;5050831;28;44581;-72
2022/05/27 10:37:10;;;;;;;1.60;1.50;;;20.80;67.70;;;;;;5083707;28;43982;-70
2022/05/27 10:39:48;;;;;;;1.67;1.60;;;21.00;67.70;;;;;;5087663;28;43452;-70
2022/05/27 10:42:23;;;;;;;1.53;1.40;;;21.20;67.10;;;;;;5094282;27;43845;-71
2022/05/27 10:45:03;;;;;;;1.67;1.57;;;21.40;67.40;;;;;;5093291;27;43355;-70
2022/05/27 10:47:41;;;;;;;2.10;1.27;;;21.50;66.10;;;;;;5087502;27;44045;-71
2022/05/27 10:50:15;;;;;;;1.40;1.40;;;21.70;65.80;;;;;;5087982;27;43963;-70
2022/05/27 10:52:57;;;;;;;2.77;1.50;;;21.90;65.30;;;;;;5091961;27;43904;-71
2022/05/27 10:55:30;;;;;;;1.20;1.20;;;22.00;65.00;;;;;;5082062;27;45629;-70
2022/05/27 11:04:24;;;;;;;1.40;1.40;;;22.20;62.40;;;;;;5106596;27;43757;-71
2022/05/27 11:07:08;;;;;;;2.50;1.30;;;22.10;63.60;;;;;;5100440;27;43362;-70
2022/05/27 11:09:42;;;;;;;1.20;1.20;;;21.90;64.40;;;;;;5088645;27;43892;-71
2022/05/27 11:12:13;;;;;;;1.20;1.13;;;21.70;64.50;;;;;;5093391;27;43960;-70
2022/05/27 11:15:10;;;;;;;1.40;1.30;;;21.50;64.90;;;;;;5109799;27;43890;-70
2022/05/27 11:17:45;;;;;;;1.43;1.43;;;21.40;65.40;;;;;;5110327;27;44109;-71
2022/05/27 11:20:47;;;;;;;1.10;1.10;;;21.20;65.70;;;;;;5110261;27;43454;-71
2022/05/27 11:23:51;;;;;;;1.20;1.20;;;21.10;66.10;;;;;;5098102;27;43824;-70
2022/05/27 11:26:22;;;;;;;1.30;1.30;;;21.00;66.40;;;;;;5027548;28;43954;-70
2022/05/27 11:29:23;;;;;;;1.37;1.33;;;20.90;66.60;;;;;;5079891;27;43429;-71
2022/05/27 11:31:58;;;;;;;1.23;1.23;;;20.90;66.80;;;;;;5106087;27;44105;-70
2022/05/27 11:34:27;;;;;;;1.20;1.20;;;20.90;66.90;;;;;;5110256;27;43877;-71
2022/05/27 11:37:17;;;;;;;1.20;1.20;;;20.80;67.00;;;;;;5092853;27;43991;-71
2022/05/27 11:40:03;;;;;;;1.00;1.00;;;20.80;67.20;;;;;;5081272;28;43966;-71
2022/05/27 11:43:01;;;;;;;1.40;1.40;;;20.80;67.20;;;;;;5102569;27;44261;-71
2022/05/27 11:45:30;;;;;;;1.00;1.00;;;20.80;68.40;;;;;;5110373;27;43942;-70
2022/05/27 11:48:04;;;;;;;1.30;1.30;;;20.90;68.70;;;;;;5089793;28;45149;-71
2022/05/27 11:51:07;;;;;;;1.30;1.20;;;21.10;68.20;;;;;;5097077;27;43954;-71
2022/05/27 11:53:45;;;;;;;1.10;1.10;;;21.20;67.60;;;;;;5104074;27;44025;-71
2022/05/27 11:56:16;;;;;;;1.07;1.07;;;21.40;67.00;;;;;;5090335;27;44057;-70
2022/05/27 11:58:48;;;;;;;1.00;1.00;;;21.60;66.50;;;;;;5089702;28;43916;-71
2022/05/27 12:01:25;;;;;;;1.03;1.03;;;21.80;66.10;;;;;;5089537;28;43359;-71
2022/05/27 12:03:59;;;;;;;1.10;1.00;;;21.90;65.50;;;;;;5089457;28;44027;-70
2022/05/27 12:06:31;;;;;;;1.07;1.07;;;22.10;65.10;;;;;;5089858;28;43958;-71
2022/05/27 12:09:00;;;;;;;1.00;1.00;;;22.20;64.70;;;;;;5089341;28;43999;-70
2022/05/27 12:11:33;;;;;;;1.10;1.10;;;22.30;64.40;;;;;;5089295;28;44009;-71
2022/05/27 12:14:02;;;;;;;1.00;1.00;;;22.40;64.00;;;;;;5089421;28;43973;-71
2022/05/27 12:16:31;;;;;;;1.00;1.00;;;22.40;63.70;;;;;;5089803;28;43919;-72
2022/05/27 12:19:02;;;;;;;1.13;0.97;;;22.50;63.60;;;;;;5089283;28;43587;-72
2022/05/27 12:21:34;;;;;;;1.00;1.00;;;22.40;63.50;;;;;;5100894;27;44005;-71
2022/05/27 12:24:04;;;;;;;1.23;1.23;;;22.20;64.10;;;;;;5109368;27;43892;-72
2022/05/27 12:26:34;;;;;;;1.10;1.10;;;22.10;64.60;;;;;;5109843;27;43909;-71
2022/05/27 12:29:03;;;;;;;0.97;0.97;;;21.80;64.60;;;;;;5109267;27;44682;-71
2022/05/27 12:31:32;;;;;;;1.00;1.00;;;21.60;65.80;;;;;;5090683;27;45173;-71
2022/05/27 12:34:16;;;;;;;0.90;0.90;;;21.40;65.50;;;;;;5089297;27;43906;-71
2022/05/27 12:36:44;;;;;;;1.10;1.10;;;21.20;65.90;;;;;;5088280;28;44010;-71
2022/05/27 12:39:12;;;;;;;1.60;1.10;;;21.20;66.40;;;;;;5088799;28;43932;-71
2022/05/27 12:41:40;;;;;;;1.00;1.00;;;21.10;66.80;;;;;;5088623;28;44574;-70
2022/05/27 12:44:11;;;;;;;0.90;0.90;;;21.00;66.80;;;;;;5088980;28;44035;-70
2022/05/27 12:46:42;;;;;;;1.10;1.10;;;20.90;66.90;;;;;;5089278;28;44082;-72
2022/05/27 12:49:27;;;;;;;1.00;1.00;;;20.90;67.10;;;;;;5088703;28;43848;-71
2022/05/27 12:51:55;;;;;;;1.07;1.07;;;20.90;67.30;;;;;;5070640;28;44997;-70
2022/05/27 12:55:00;;;;;;;0.90;0.90;;;20.80;67.40;;;;;;5088517;28;43997;-71
2022/05/27 13:03:51;;;;;;;1.00;1.00;;;20.80;67.60;;;;;;5089059;27;43394;-71
2022/05/27 13:06:41;;;;;;;1.30;1.30;;;20.80;67.70;;;;;;5025979;28;43915;-71
2022/05/27 13:09:11;;;;;;;0.90;0.90;;;20.80;67.70;;;;;;5027555;28;44182;-70
2022/05/27 13:11:46;;;;;;;0.90;0.90;;;20.80;67.70;;;;;;5053887;28;45748;-70
2022/05/27 13:14:18;;;;;;;0.90;0.90;;;20.70;67.60;;;;;;5069616;28;45956;-70
2022/05/27 13:17:03;;;;;;;0.90;0.90;;;20.80;69.00;;;;;;5088303;28;43951;-70
2022/05/27 13:19:33;;;;;;;0.97;0.97;;;20.90;68.90;;;;;;5088951;27;43969;-71
2022/05/27 13:22:03;;;;;;;0.80;0.80;;;21.10;68.40;;;;;;5088634;27;43968;-72
2022/05/27 13:24:36;;;;;;;0.80;0.80;;;21.30;67.80;;;;;;5088687;27;44006;-72
2022/05/27 13:27:16;;;;;;;1.00;1.00;;;21.50;67.20;;;;;;5088987;27;43943;-71
2022/05/27 13:29:45;;;;;;;0.93;0.93;;;21.70;66.70;;;;;;5089027;27;43892;-71
2022/05/27 13:32:16;;;;;;;0.90;0.90;;;21.90;66.30;;;;;;5087506;27;44005;-72
2022/05/27 13:34:46;;;;;;;0.80;0.80;;;22.00;65.70;;;;;;5107811;27;43795;-71
2022/05/27 13:37:20;;;;;;;0.80;0.80;;;22.10;65.30;;;;;;5089093;27;43975;-71
2022/05/27 13:39:51;;;;;;;0.83;0.83;;;22.20;64.80;;;;;;5088286;28;44273;-70
2022/05/27 13:42:27;;;;;;;0.93;0.93;;;22.30;64.60;;;;;;5088014;28;43916;-71